createdAt,value
2018-01-21T00:01:44.244Z,39.10
2018-01-21T00:04:11.785Z,40.90
2018-01-21T00:06:40.062Z,40.47
2018-01-21T00:09:08.351Z,40.47
2018-01-21T00:11:35.903Z,41.50
2018-01-21T00:14:03.519Z,39.75
2018-01-21T00:16:31.082Z,40.97
2018-01-21T00:18:58.732Z,41.75
2018-01-21T00:21:26.335Z,42.72
2018-01-21T00:23:53.862Z,46.30
2018-01-21T00:26:21.351Z,40.03
2018-01-21T00:28:48.986Z,42.38
2018-01-21T00:31:16.706Z,43.38
2018-01-21T00:33:44.352Z,48.20
2018-01-21T00:36:11.905Z,50.22
2018-01-21T00:38:39.453Z,47.47
2018-01-21T00:41:06.981Z,51.90
2018-01-21T00:43:34.559Z,50.45
2018-01-21T00:46:02.139Z,52.00
2018-01-21T00:48:29.722Z,56.72
2018-01-21T00:50:57.299Z,51.08
2018-01-21T00:53:24.841Z,49.25
2018-01-21T00:55:52.387Z,43.55
2018-01-21T00:58:19.965Z,47.85
2018-01-21T01:00:47.448Z,44.45
2018-01-21T01:03:15.010Z,41.80
2018-01-21T01:05:42.470Z,46.10
2018-01-21T01:08:09.969Z,47.85
2018-01-21T01:10:37.458Z,42.15
2018-01-21T01:13:04.936Z,44.10
2018-01-21T01:15:32.443Z,45.03
2018-01-21T01:17:59.953Z,43.33
2018-01-21T01:20:27.438Z,46.65
2018-01-21T01:22:55.014Z,46.40
2018-01-21T01:25:22.527Z,39.83
2018-01-21T01:27:50.068Z,44.80
2018-01-21T01:30:17.590Z,40.80
2018-01-21T01:32:45.096Z,46.97
2018-01-21T01:35:12.614Z,37.55
2018-01-21T01:37:40.147Z,39.70
2018-01-21T01:40:08.421Z,38.17
2018-01-21T01:42:35.949Z,43.35
2018-01-21T01:45:03.455Z,40.00
2018-01-21T01:47:30.913Z,41.40
2018-01-21T01:49:58.451Z,43.22
2018-01-21T01:52:26.721Z,39.38
2018-01-21T01:54:54.979Z,41.00
2018-01-21T01:57:22.447Z,37.75
2018-01-21T01:59:49.919Z,41.45
2018-01-21T02:02:17.391Z,38.83
2018-01-21T02:04:44.882Z,45.00
2018-01-21T02:07:12.346Z,41.55
2018-01-21T02:09:39.838Z,34.83
2018-01-21T02:12:07.318Z,34.03
2018-01-21T02:14:34.826Z,38.38
2018-01-21T02:17:02.306Z,43.60
2018-01-21T02:19:29.783Z,46.05
2018-01-21T02:21:57.242Z,43.05
2018-01-21T02:24:24.773Z,35.67
2018-01-21T02:26:52.247Z,36.92
2018-01-21T02:29:20.491Z,35.03
2018-01-21T02:31:48.187Z,42.03
2018-01-21T02:34:15.760Z,37.10
2018-01-21T02:36:43.313Z,42.85
2018-01-21T02:39:10.904Z,36.28
2018-01-21T02:41:38.415Z,38.45
2018-01-21T02:44:06.281Z,39.13
2018-01-21T02:46:33.758Z,41.28
2018-01-21T02:49:01.248Z,40.75
2018-01-21T02:51:28.788Z,37.30
2018-01-21T02:53:56.418Z,40.63
2018-01-21T02:56:23.891Z,42.30
2018-01-21T02:58:51.358Z,37.30
2018-01-21T03:01:18.858Z,43.00
2018-01-21T03:03:46.357Z,44.20
2018-01-21T03:06:13.881Z,44.35
2018-01-21T03:08:41.366Z,38.95
2018-01-21T03:11:09.642Z,39.05
2018-01-21T03:13:37.899Z,39.67
2018-01-21T03:16:05.433Z,38.38
2018-01-21T03:18:32.942Z,35.58
2018-01-21T03:21:00.439Z,36.10
2018-01-21T03:23:27.901Z,36.15
2018-01-21T03:25:55.384Z,39.08
2018-01-21T03:28:22.873Z,39.90
2018-01-21T03:30:50.347Z,36.00
2018-01-21T03:33:17.833Z,39.33
2018-01-21T03:35:45.362Z,34.85
2018-01-21T03:38:12.851Z,39.47
2018-01-21T03:40:40.365Z,33.88
2018-01-21T03:43:07.884Z,36.85
2018-01-21T03:45:35.431Z,35.10
2018-01-21T03:48:02.949Z,37.58
2018-01-21T03:50:30.461Z,36.38
2018-01-21T03:52:57.996Z,39.42
2018-01-21T03:55:25.514Z,36.28
2018-01-21T03:57:53.162Z,40.08
2018-01-21T04:00:20.835Z,38.78
2018-01-21T04:02:48.448Z,34.45
2018-01-21T04:05:15.940Z,35.80
2018-01-21T04:07:44.198Z,37.15
2018-01-21T04:10:11.672Z,35.95
2018-01-21T04:12:39.943Z,43.08
2018-01-21T04:15:07.441Z,42.53
2018-01-21T04:17:35.004Z,36.58
2018-01-21T04:20:02.597Z,39.58
2018-01-21T04:22:30.117Z,33.53
2018-01-21T04:24:57.651Z,40.35
2018-01-21T04:27:25.191Z,38.30
2018-01-21T04:29:53.505Z,44.75
2018-01-21T04:32:21.166Z,37.05
2018-01-21T04:34:48.687Z,39.15
2018-01-21T04:37:16.252Z,38.70
2018-01-21T04:39:44.591Z,41.88
2018-01-21T04:42:12.072Z,35.72
2018-01-21T04:44:39.649Z,33.50
2018-01-21T04:47:07.376Z,38.42
2018-01-21T04:49:36.831Z,39.10
2018-01-21T04:52:04.905Z,40.22
2018-01-21T04:54:32.697Z,37.05
2018-01-21T04:57:00.756Z,37.38
2018-01-21T04:59:28.394Z,36.33
2018-01-21T05:01:55.975Z,35.75
2018-01-21T05:04:23.721Z,44.53
2018-01-21T05:06:51.287Z,36.22
2018-01-21T05:09:19.046Z,37.83
2018-01-21T05:11:46.652Z,37.80
2018-01-21T05:14:14.221Z,39.90
2018-01-21T05:16:41.707Z,42.13
2018-01-21T05:19:09.230Z,39.35
2018-01-21T05:21:36.924Z,32.95
2018-01-21T05:24:05.298Z,41.22
2018-01-21T05:26:32.923Z,42.05
2018-01-21T05:29:00.897Z,43.60
2018-01-21T05:31:28.515Z,43.22
2018-01-21T05:33:56.393Z,39.13
2018-01-21T05:36:24.105Z,41.53
2018-01-21T05:38:52.256Z,44.33
2018-01-21T05:41:20.687Z,45.17
2018-01-21T05:43:48.255Z,37.10
2018-01-21T05:46:15.827Z,36.53
2018-01-21T05:48:43.643Z,42.60
2018-01-21T05:51:11.393Z,37.42
2018-01-21T05:53:39.151Z,41.17
2018-01-21T05:56:06.811Z,40.83
2018-01-21T05:58:34.322Z,42.92
2018-01-21T06:01:01.930Z,38.45
2018-01-21T06:03:29.483Z,36.67
2018-01-21T06:05:57.095Z,40.45
2018-01-21T06:08:24.657Z,41.70
2018-01-21T06:10:52.327Z,41.08
2018-01-21T06:13:19.902Z,37.95
2018-01-21T06:15:47.421Z,40.95
2018-01-21T06:18:15.824Z,42.50
2018-01-21T06:20:43.517Z,43.70
2018-01-21T06:23:11.071Z,42.97
2018-01-21T06:25:38.689Z,36.70
2018-01-21T06:28:06.316Z,38.58
2018-01-21T06:30:33.929Z,34.67
2018-01-21T06:33:01.509Z,41.28
2018-01-21T06:35:29.040Z,43.92
2018-01-21T06:37:56.611Z,33.50
2018-01-21T06:40:24.181Z,40.28
2018-01-21T06:42:51.876Z,40.08
2018-01-21T06:45:19.512Z,37.97
2018-01-21T06:47:47.151Z,43.20
2018-01-21T06:50:14.783Z,36.42
2018-01-21T06:52:42.372Z,44.72
2018-01-21T06:55:09.940Z,42.15
2018-01-21T06:57:37.602Z,46.37
2018-01-21T07:00:05.206Z,41.50
2018-01-21T07:02:33.202Z,39.85
2018-01-21T07:05:01.540Z,39.33
2018-01-21T07:07:29.160Z,37.05
2018-01-21T07:09:56.904Z,41.00
2018-01-21T07:12:24.590Z,42.03
2018-01-21T07:14:52.070Z,38.47
2018-01-21T07:17:19.564Z,45.00
2018-01-21T07:19:47.059Z,46.72
2018-01-21T07:22:14.553Z,53.05
2018-01-21T07:24:42.033Z,48.55
2018-01-21T07:27:09.490Z,47.05
2018-01-21T07:29:37.094Z,46.13
2018-01-21T07:32:04.646Z,46.15
2018-01-21T07:34:32.138Z,37.78
2018-01-21T07:36:59.618Z,42.70
2018-01-21T07:39:27.207Z,41.80
2018-01-21T07:41:57.434Z,37.50
2018-01-21T07:44:25.154Z,31.65
2018-01-21T07:46:52.712Z,49.03
2018-01-21T07:49:20.259Z,35.08
2018-01-21T07:51:47.792Z,31.40
2018-01-21T07:54:15.327Z,27.48
2018-01-21T07:56:42.850Z,37.95
2018-01-21T07:59:10.374Z,35.70
2018-01-21T08:01:37.962Z,39.58
2018-01-21T08:04:05.434Z,40.35
2018-01-21T08:06:32.920Z,41.25
2018-01-21T08:09:01.164Z,34.78
2018-01-21T08:11:28.735Z,29.60
2018-01-21T08:13:56.308Z,33.42
2018-01-21T08:16:23.795Z,43.22
2018-01-21T08:18:51.276Z,28.48
2018-01-21T08:21:18.771Z,29.67
2018-01-21T08:23:46.263Z,30.85
2018-01-21T08:26:13.726Z,28.70
2018-01-21T08:28:41.200Z,28.52
2018-01-21T08:31:08.674Z,34.15
2018-01-21T08:33:36.152Z,30.70
2018-01-21T08:36:09.174Z,25.85
2018-01-21T08:38:42.525Z,34.63
2018-01-21T08:41:15.678Z,32.55
2018-01-21T08:43:43.272Z,30.98
2018-01-21T08:46:10.762Z,31.20
2018-01-21T08:48:38.267Z,39.08
2018-01-21T08:51:05.767Z,31.05
2018-01-21T08:53:33.225Z,38.03
2018-01-21T08:56:00.682Z,33.67
2018-01-21T08:58:28.151Z,32.55
2018-01-21T09:00:55.609Z,29.98
2018-01-21T09:03:29.819Z,33.53
2018-01-21T09:05:57.344Z,27.40
2018-01-21T09:08:24.830Z,35.15
2018-01-21T09:10:53.085Z,43.70
2018-01-21T09:13:21.538Z,31.33
2018-01-21T09:15:49.225Z,33.40
2018-01-21T09:18:26.958Z,43.83
2018-01-21T09:20:56.250Z,37.30
2018-01-21T09:23:23.880Z,36.30
2018-01-21T09:25:51.539Z,34.70
2018-01-21T09:28:19.352Z,43.15
2018-01-21T09:30:47.314Z,37.70
2018-01-21T09:33:18.765Z,36.17
2018-01-21T09:35:46.792Z,32.13
2018-01-21T09:41:09.958Z,35.35
2018-01-21T09:43:37.916Z,33.53
2018-01-21T09:46:12.626Z,35.85
2018-01-21T09:48:49.864Z,32.67
2018-01-21T09:51:22.800Z,32.17
2018-01-21T09:53:50.699Z,34.53
2018-01-21T09:56:21.497Z,34.75
2018-01-21T09:58:55.047Z,34.20
2018-01-21T10:01:28.311Z,22.77
2018-01-21T10:03:56.510Z,26.95
2018-01-21T10:06:24.989Z,26.45
2018-01-21T10:08:54.368Z,25.65
2018-01-21T10:11:21.893Z,28.75
2018-01-21T10:19:16.015Z,26.08
2018-01-21T10:21:43.794Z,22.02
2018-01-21T10:24:12.104Z,26.73
2018-01-21T10:26:40.509Z,29.45
2018-01-21T10:29:09.870Z,32.78
2018-01-21T10:31:40.970Z,30.95
2018-01-21T10:36:59.683Z,26.08
2018-01-21T10:39:28.876Z,24.55
2018-01-21T10:41:57.950Z,26.42
2018-01-21T10:47:12.652Z,28.52
2018-01-21T10:49:56.331Z,27.60
2018-01-21T10:52:26.716Z,36.05
2018-01-21T10:54:54.423Z,35.47
2018-01-21T10:57:26.376Z,31.10
2018-01-21T10:59:55.848Z,25.85
2018-01-21T11:02:23.640Z,29.52
2018-01-21T11:04:52.511Z,29.60
2018-01-21T11:07:20.432Z,31.45
2018-01-21T11:09:48.120Z,28.17
2018-01-21T11:12:15.864Z,29.52
2018-01-21T11:14:45.719Z,29.17
2018-01-21T11:17:14.404Z,30.60
2018-01-21T11:19:43.302Z,30.55
2018-01-21T11:22:12.211Z,28.98
2018-01-21T11:24:41.189Z,26.58
2018-01-21T11:27:09.350Z,27.37
2018-01-21T11:29:38.907Z,25.52
2018-01-21T11:32:06.611Z,27.42
2018-01-21T11:34:34.202Z,29.67
2018-01-21T11:37:02.733Z,34.72
2018-01-21T11:39:30.352Z,30.05
2018-01-21T11:41:58.077Z,31.65
2018-01-21T11:44:26.586Z,32.38
2018-01-21T11:46:56.658Z,32.03
2018-01-21T11:49:24.432Z,27.70
2018-01-21T11:51:53.479Z,44.85
2018-01-21T11:54:24.015Z,29.10
2018-01-21T11:56:53.447Z,30.70
2018-01-21T11:59:22.572Z,34.75
2018-01-21T12:01:51.502Z,28.75
2018-01-21T12:04:19.615Z,28.38
2018-01-21T12:06:48.121Z,31.83
2018-01-21T12:09:16.357Z,32.60
2018-01-21T12:11:44.786Z,47.20
2018-01-21T12:14:14.903Z,30.73
2018-01-21T12:16:47.181Z,28.75
2018-01-21T12:19:16.133Z,32.00
2018-01-21T12:21:44.384Z,31.77
2018-01-21T12:24:12.587Z,38.35
2018-01-21T12:26:40.450Z,29.25
2018-01-21T12:29:10.981Z,30.70
2018-01-21T12:31:39.734Z,32.13
2018-01-21T12:34:08.416Z,24.52
2018-01-21T12:36:38.206Z,28.67
2018-01-21T12:42:17.650Z,28.87
2018-01-21T12:50:23.348Z,30.17
2018-01-21T12:52:52.235Z,31.62
2018-01-21T12:55:28.437Z,30.27
2018-01-21T12:58:13.872Z,28.77
2018-01-21T13:00:43.254Z,32.28
2018-01-21T13:03:14.389Z,29.23
2018-01-21T13:05:50.317Z,28.15
2018-01-21T13:08:22.275Z,28.48
2018-01-21T13:13:43.509Z,26.37
2018-01-21T13:16:15.413Z,26.62
2018-01-21T13:19:09.228Z,31.62
2018-01-21T13:28:37.508Z,30.05
2018-01-21T13:31:10.655Z,32.58
2018-01-21T13:33:38.283Z,33.20
2018-01-21T13:36:07.347Z,32.50
2018-01-21T13:38:36.451Z,37.22
2018-01-21T13:44:01.272Z,37.25
2018-01-21T13:46:31.668Z,31.67
2018-01-21T13:49:01.272Z,34.38
2018-01-21T13:51:33.249Z,36.58
2018-01-21T13:54:03.550Z,38.35
2018-01-21T14:12:57.259Z,30.62
2018-01-21T14:15:24.797Z,30.90
2018-01-21T14:17:53.079Z,30.45
2018-01-21T14:20:20.838Z,29.90
2018-01-21T14:22:59.847Z,31.00
2018-01-21T14:25:28.452Z,31.27
2018-01-21T14:27:57.325Z,28.62
2018-01-21T14:30:26.913Z,33.25
2018-01-21T14:32:56.831Z,35.88
2018-01-21T14:35:27.606Z,35.00
2018-01-21T14:41:43.206Z,36.95
2018-01-21T14:44:30.858Z,35.03
2018-01-21T14:47:00.802Z,35.10
2018-01-21T14:49:29.941Z,40.67
2018-01-21T14:51:57.438Z,40.25
2018-01-21T14:54:24.945Z,46.75
2018-01-21T14:56:52.522Z,39.35
2018-01-21T14:59:21.965Z,41.97
2018-01-21T15:01:50.009Z,42.60
2018-01-21T15:04:21.085Z,43.87
2018-01-21T15:06:52.528Z,41.08
2018-01-21T15:09:20.759Z,48.75
2018-01-21T15:11:49.341Z,35.92
2018-01-21T15:14:22.212Z,43.90
2018-01-21T15:16:51.553Z,36.40
2018-01-21T15:19:20.382Z,37.72
2018-01-21T15:21:56.044Z,35.85
2018-01-21T15:24:24.245Z,38.70
2018-01-21T15:27:25.113Z,35.80
2018-01-21T15:29:58.706Z,37.45
2018-01-21T15:32:37.971Z,42.05
2018-01-21T15:35:17.376Z,37.22
2018-01-21T15:37:50.038Z,44.17
2018-01-21T15:40:37.562Z,43.00
2018-01-21T15:43:10.264Z,49.28
2018-01-21T15:45:51.763Z,50.65
2018-01-21T15:48:19.317Z,41.90
2018-01-21T15:50:47.280Z,52.15
2018-01-21T15:53:16.478Z,49.65
2018-01-21T15:56:01.966Z,47.78
2018-01-21T15:58:36.904Z,39.42
2018-01-21T16:01:04.453Z,44.85
2018-01-21T16:03:32.701Z,37.60
2018-01-21T16:06:00.182Z,41.17
2018-01-21T16:08:27.725Z,44.67
2018-01-21T16:10:55.195Z,38.92
2018-01-21T16:13:22.646Z,42.45
2018-01-21T16:15:50.115Z,39.72
2018-01-21T16:18:18.350Z,39.63
2018-01-21T16:20:45.811Z,39.17
2018-01-21T16:23:13.324Z,35.25
2018-01-21T16:25:40.789Z,38.33
2018-01-21T16:28:08.240Z,41.80
2018-01-21T16:30:35.698Z,45.20
2018-01-21T16:33:03.202Z,38.30
2018-01-21T16:35:30.718Z,36.50
2018-01-21T16:38:09.933Z,37.35
2018-01-21T16:40:37.799Z,37.67
2018-01-21T16:43:05.273Z,39.42
2018-01-21T16:45:32.717Z,39.22
2018-01-21T16:48:00.181Z,33.65
2018-01-21T16:50:30.598Z,40.95
2018-01-21T16:52:58.472Z,42.10
2018-01-21T16:55:25.977Z,37.33
2018-01-21T16:57:53.451Z,42.62
2018-01-21T17:00:20.929Z,42.42
2018-01-21T17:02:49.196Z,34.08
2018-01-21T17:05:16.657Z,39.95
2018-01-21T17:07:44.931Z,48.53
2018-01-21T17:10:13.213Z,42.65
2018-01-21T17:12:40.730Z,38.35
2018-01-21T17:15:08.241Z,40.78
2018-01-21T17:17:35.697Z,39.33
2018-01-21T17:20:03.244Z,43.38
2018-01-21T17:22:31.521Z,40.12
2018-01-21T17:24:59.143Z,35.47
2018-01-21T17:27:26.684Z,38.30
2018-01-21T17:29:54.180Z,41.42
2018-01-21T17:32:21.681Z,48.38
2018-01-21T17:34:49.274Z,41.15
2018-01-21T17:37:16.836Z,38.75
2018-01-21T17:39:44.345Z,37.70
2018-01-21T17:42:11.877Z,38.95
2018-01-21T17:44:39.361Z,36.42
2018-01-21T17:47:06.830Z,40.17
2018-01-21T17:49:34.313Z,34.30
2018-01-21T17:52:01.829Z,34.53
2018-01-21T17:54:29.304Z,39.13
2018-01-21T17:56:56.804Z,32.80
2018-01-21T17:59:26.140Z,33.25
2018-01-21T18:01:54.384Z,29.50
2018-01-21T18:04:21.868Z,29.17
2018-01-21T18:06:50.127Z,30.02
2018-01-21T18:09:17.588Z,30.00
2018-01-21T18:11:45.078Z,32.17
2018-01-21T18:14:12.542Z,36.17
2018-01-21T18:16:40.073Z,30.75
2018-01-21T18:19:07.659Z,32.60
2018-01-21T18:21:35.212Z,34.78
2018-01-21T18:24:02.709Z,28.83
2018-01-21T18:26:30.195Z,30.27
2018-01-21T18:28:57.680Z,30.35
2018-01-21T18:31:25.915Z,27.48
2018-01-21T18:33:53.474Z,35.08
2018-01-21T18:36:21.185Z,28.52
2018-01-21T18:38:48.730Z,22.75
2018-01-21T18:41:17.177Z,30.62
2018-01-21T18:43:45.428Z,33.53
2018-01-21T18:46:12.948Z,26.40
2018-01-21T18:48:41.058Z,24.75
2018-01-21T18:51:08.686Z,30.33
2018-01-21T18:53:36.824Z,32.13
2018-01-21T18:56:05.059Z,29.37
2018-01-21T18:58:34.507Z,29.05
2018-01-21T19:01:02.160Z,28.38
2018-01-21T19:06:08.366Z,22.25
2018-01-21T19:08:36.898Z,30.75
2018-01-21T19:11:04.962Z,26.50
2018-01-21T19:13:32.468Z,26.15
2018-01-21T19:16:00.723Z,23.73
2018-01-21T19:18:28.249Z,24.40
2018-01-21T19:20:55.709Z,33.25
2018-01-21T19:23:23.225Z,24.45
2018-01-21T19:25:50.688Z,25.37
2018-01-21T19:28:19.046Z,25.62
2018-01-21T19:33:37.034Z,29.83
2018-01-21T19:36:04.465Z,35.55
2018-01-21T19:38:38.527Z,28.60
2018-01-21T19:41:06.400Z,29.25
2018-01-21T19:43:38.543Z,34.17
2018-01-21T19:46:06.059Z,34.35
2018-01-21T19:48:34.551Z,31.48
2018-01-21T19:51:06.210Z,35.45
2018-01-21T19:53:34.823Z,36.03
2018-01-21T19:56:02.277Z,31.10
2018-01-21T19:58:29.892Z,31.27
2018-01-21T20:00:57.466Z,34.58
2018-01-21T20:03:24.941Z,36.15
2018-01-21T20:05:53.319Z,35.30
2018-01-21T20:08:20.777Z,33.60
2018-01-21T20:10:48.248Z,40.72
2018-01-21T20:13:15.746Z,38.90
2018-01-21T20:15:43.300Z,39.42
2018-01-21T20:18:10.791Z,34.05
2018-01-21T20:20:38.328Z,36.42
2018-01-21T20:23:05.826Z,36.08
2018-01-21T20:25:33.292Z,32.75
2018-01-21T20:28:01.074Z,35.65
2018-01-21T20:30:28.549Z,35.35
2018-01-21T20:32:56.420Z,33.05
2018-01-21T20:35:24.735Z,32.20
2018-01-21T20:37:52.983Z,29.37
2018-01-21T20:40:20.513Z,29.77
2018-01-21T20:42:48.810Z,31.25
2018-01-21T20:45:16.457Z,33.53
2018-01-21T20:47:43.982Z,30.45
2018-01-21T20:50:11.460Z,28.02
2018-01-21T20:52:44.533Z,35.20
2018-01-21T20:55:11.987Z,35.92
2018-01-21T20:57:39.452Z,31.92
2018-01-21T21:00:07.021Z,35.92
2018-01-21T21:02:34.503Z,38.05
2018-01-21T21:05:02.783Z,39.00
2018-01-21T21:07:30.538Z,40.25
2018-01-21T21:09:58.037Z,38.08
2018-01-21T21:12:25.565Z,39.67
2018-01-21T21:14:53.153Z,37.15
2018-01-21T21:17:20.653Z,40.10
2018-01-21T21:19:48.344Z,39.17
2018-01-21T21:22:16.132Z,37.15
2018-01-21T21:24:43.680Z,36.83
2018-01-21T21:27:11.273Z,43.30
2018-01-21T21:29:40.862Z,33.47
2018-01-21T21:32:09.158Z,40.33
2018-01-21T21:34:37.079Z,37.28
2018-01-21T21:37:04.558Z,37.95
2018-01-21T21:39:33.787Z,33.83
2018-01-21T21:42:01.263Z,42.05
2018-01-21T21:44:28.874Z,38.63
2018-01-21T21:46:56.696Z,39.35
2018-01-21T21:49:24.197Z,43.92
2018-01-21T21:51:51.820Z,33.75
2018-01-21T21:54:20.452Z,40.28
2018-01-21T21:56:48.015Z,38.10
2018-01-21T21:59:15.518Z,46.08
2018-01-21T22:01:43.039Z,46.03
2018-01-21T22:04:11.398Z,38.47
2018-01-21T22:06:39.621Z,46.78
2018-01-21T22:09:08.784Z,44.85
2018-01-21T22:11:44.401Z,49.38
2018-01-21T22:14:11.908Z,46.13
2018-01-21T22:16:39.441Z,54.85
2018-01-21T22:19:06.938Z,41.22
2018-01-21T22:21:34.558Z,38.85
2018-01-21T22:24:02.329Z,37.28
2018-01-21T22:26:29.854Z,37.78
2018-01-21T22:28:57.373Z,38.47
2018-01-21T22:31:24.840Z,40.85
2018-01-21T22:33:52.368Z,35.88
2018-01-21T22:36:19.884Z,38.03
2018-01-21T22:38:48.249Z,41.80
2018-01-21T22:41:15.764Z,36.60
2018-01-21T22:43:43.247Z,37.28
2018-01-21T22:46:10.772Z,28.10
2018-01-21T22:48:38.533Z,47.15
2018-01-21T22:51:06.073Z,40.05
2018-01-21T22:53:33.601Z,37.33
2018-01-21T22:56:01.075Z,35.78
2018-01-21T22:58:28.564Z,35.35
2018-01-21T23:00:56.067Z,40.67
2018-01-21T23:03:23.577Z,35.45
2018-01-21T23:05:51.063Z,36.58
2018-01-21T23:08:18.524Z,37.25
2018-01-21T23:10:46.145Z,39.05
2018-01-21T23:13:13.638Z,44.38
2018-01-21T23:15:41.213Z,45.25
2018-01-21T23:18:08.678Z,39.88
2018-01-21T23:20:48.014Z,38.70
2018-01-21T23:23:15.486Z,39.20
2018-01-21T23:25:42.973Z,35.85
2018-01-21T23:28:11.261Z,39.30
2018-01-21T23:30:38.742Z,36.67
2018-01-21T23:33:06.222Z,39.10
2018-01-21T23:35:33.706Z,35.88
2018-01-21T23:38:01.949Z,32.58
2018-01-21T23:40:29.477Z,41.20
2018-01-21T23:42:56.967Z,37.28
2018-01-21T23:45:24.463Z,42.85
2018-01-21T23:47:52.741Z,36.50
2018-01-21T23:50:20.975Z,50.85
2018-01-21T23:52:48.711Z,37.33
2018-01-21T23:55:16.173Z,35.60
2018-01-21T23:57:43.681Z,36.33
